createdAt,value
2019-05-16T00:01:09.845Z,6.34
2019-05-16T00:03:41.143Z,6.36
2019-05-16T00:06:12.837Z,6.35
2019-05-16T00:08:44.159Z,6.39
2019-05-16T00:11:17.786Z,6.33
2019-05-16T00:13:49.046Z,6.37
2019-05-16T00:16:20.638Z,6.33
2019-05-16T00:18:51.963Z,6.34
2019-05-16T00:21:23.547Z,6.32
2019-05-16T00:23:54.929Z,6.32
2019-05-16T00:26:28.194Z,6.37
2019-05-16T00:28:59.337Z,6.34
2019-05-16T00:31:30.669Z,6.35
2019-05-16T00:34:01.998Z,6.32
2019-05-16T00:36:33.373Z,6.32
2019-05-16T00:39:08.214Z,6.33
2019-05-16T00:41:38.990Z,6.32
2019-05-16T00:44:10.382Z,6.29
2019-05-16T00:46:41.702Z,6.36
2019-05-16T00:49:13.193Z,6.32
2019-05-16T00:51:44.722Z,6.28
2019-05-16T00:54:18.446Z,6.28
2019-05-16T00:56:49.098Z,6.25
2019-05-16T00:59:20.936Z,6.22
2019-05-16T01:01:52.290Z,6.23
2019-05-16T01:04:23.662Z,6.22
2019-05-16T01:06:55.083Z,6.22
2019-05-16T01:09:28.254Z,6.27
2019-05-16T01:11:59.944Z,6.23
2019-05-16T01:14:31.535Z,6.21
2019-05-16T01:17:02.862Z,6.20
2019-05-16T01:19:34.163Z,6.19
2019-05-16T01:22:08.295Z,6.20
2019-05-16T01:24:41.537Z,6.20
2019-05-16T01:27:12.752Z,6.18
2019-05-16T01:29:47.606Z,6.18
2019-05-16T01:32:19.150Z,6.18
2019-05-16T01:34:50.476Z,6.17
2019-05-16T01:37:21.857Z,6.17
2019-05-16T01:39:53.511Z,6.15
2019-05-16T01:42:24.846Z,6.16
2019-05-16T01:44:57.869Z,6.21
2019-05-16T01:47:31.073Z,6.20
2019-05-16T01:50:02.499Z,6.16
2019-05-16T01:52:33.845Z,6.16
2019-05-16T01:55:05.396Z,6.15
2019-05-16T01:57:38.847Z,6.13
2019-05-16T02:00:12.753Z,6.12
2019-05-16T02:02:44.214Z,6.15
2019-05-16T02:05:15.714Z,6.13
2019-05-16T02:07:48.015Z,6.11
2019-05-16T02:10:19.732Z,6.12
2019-05-16T02:12:51.259Z,6.11
2019-05-16T02:15:22.669Z,6.09
2019-05-16T02:17:55.077Z,6.08
2019-05-16T02:20:28.302Z,6.07
2019-05-16T02:22:59.651Z,6.07
2019-05-16T02:25:31.003Z,6.08
2019-05-16T02:28:02.369Z,6.05
2019-05-16T02:30:33.805Z,6.07
2019-05-16T02:33:05.354Z,6.05
2019-05-16T02:35:36.859Z,6.03
2019-05-16T02:38:11.176Z,6.03
2019-05-16T02:40:43.278Z,6.03
2019-05-16T02:43:16.326Z,6.02
2019-05-16T02:45:47.788Z,6.03
2019-05-16T02:48:21.553Z,6.04
2019-05-16T02:50:53.175Z,6.03
2019-05-16T02:53:24.619Z,6.02
2019-05-16T02:55:55.999Z,6.04
2019-05-16T02:58:30.499Z,6.01
2019-05-16T03:01:01.795Z,6.02
2019-05-16T03:03:33.588Z,6.05
2019-05-16T03:06:04.969Z,6.04
2019-05-16T03:08:40.969Z,6.03
2019-05-16T03:11:11.854Z,6.10
2019-05-16T03:13:45.334Z,6.06
2019-05-16T03:16:17.008Z,6.04
2019-05-16T03:18:51.593Z,6.05
2019-05-16T03:21:24.628Z,6.03
2019-05-16T03:24:00.625Z,6.03
2019-05-16T03:26:31.591Z,6.05
2019-05-16T03:29:04.685Z,6.04
2019-05-16T03:31:36.113Z,6.06
2019-05-16T03:34:08.149Z,6.05
2019-05-16T03:36:44.056Z,6.05
2019-05-16T03:39:15.070Z,6.09
2019-05-16T03:41:50.691Z,6.09
2019-05-16T03:44:21.265Z,6.09
2019-05-16T03:46:52.519Z,6.12
2019-05-16T03:49:23.807Z,6.13
2019-05-16T03:51:55.150Z,6.19
2019-05-16T03:54:26.606Z,6.19
2019-05-16T03:57:00.283Z,6.21
2019-05-16T03:59:31.636Z,6.22
2019-05-16T04:02:03.076Z,6.21
2019-05-16T04:04:34.349Z,6.23
2019-05-16T04:07:05.794Z,6.24
2019-05-16T04:09:40.876Z,6.26
2019-05-16T04:12:10.885Z,6.32
2019-05-16T04:14:42.392Z,6.32
2019-05-16T04:17:13.778Z,6.37
2019-05-16T04:19:45.095Z,6.35
2019-05-16T04:22:16.677Z,6.35
2019-05-16T04:24:51.001Z,6.35
2019-05-16T04:27:22.723Z,6.37
2019-05-16T04:29:54.125Z,6.39
2019-05-16T04:32:25.449Z,6.39
2019-05-16T04:34:56.761Z,6.44
2019-05-16T04:37:31.394Z,6.45
2019-05-16T04:40:02.919Z,6.47
2019-05-16T04:42:34.290Z,6.49
2019-05-16T04:45:05.938Z,6.50
2019-05-16T04:47:41.074Z,6.53
2019-05-16T04:50:11.853Z,6.60
2019-05-16T04:52:43.591Z,6.58
2019-05-16T04:55:14.870Z,6.58
2019-05-16T04:57:46.207Z,6.57
2019-05-16T05:00:21.145Z,6.56
2019-05-16T05:02:52.017Z,6.58
2019-05-16T05:05:23.786Z,6.61
2019-05-16T05:07:55.208Z,6.62
2019-05-16T05:10:26.548Z,6.68
2019-05-16T05:12:57.849Z,6.72
2019-05-16T05:15:30.646Z,6.72
2019-05-16T05:18:40.946Z,6.69
2019-05-16T05:21:13.138Z,6.72
2019-05-16T05:23:44.579Z,6.72
2019-05-16T05:26:15.929Z,6.73
2019-05-16T05:28:47.256Z,6.74
2019-05-16T05:31:23.853Z,6.79
2019-05-16T05:33:51.638Z,6.82
2019-05-16T05:36:23.014Z,6.85
2019-05-16T05:39:07.935Z,6.89
2019-05-16T05:41:27.517Z,6.92
2019-05-16T05:43:59.834Z,6.97
2019-05-16T05:46:31.801Z,6.97
2019-05-16T05:49:03.205Z,6.96
2019-05-16T05:51:34.860Z,6.98
2019-05-16T05:54:06.221Z,7.03
2019-05-16T05:56:39.683Z,6.97
2019-05-16T05:59:11.348Z,6.99
2019-05-16T06:01:43.073Z,6.99
2019-05-16T06:04:14.552Z,6.97
2019-05-16T06:06:45.950Z,6.97
2019-05-16T06:09:26.220Z,6.97
2019-05-16T06:11:50.477Z,6.93
2019-05-16T06:14:21.851Z,6.96
2019-05-16T06:16:53.226Z,6.94
2019-05-16T06:19:24.615Z,6.93
2019-05-16T06:21:56.118Z,6.96
2019-05-16T06:24:27.437Z,6.96
2019-05-16T06:27:00.905Z,7.02
2019-05-16T06:29:32.033Z,7.04
2019-05-16T06:32:03.429Z,7.07
2019-05-16T06:34:34.854Z,7.15
2019-05-16T06:37:06.306Z,7.17
2019-05-16T06:39:42.767Z,7.21
2019-05-16T06:42:10.696Z,7.27
2019-05-16T06:44:42.091Z,7.41
2019-05-16T06:47:19.769Z,7.43
2019-05-16T06:49:46.435Z,7.48
2019-05-16T06:52:19.694Z,7.51
2019-05-16T06:54:53.729Z,7.50
2019-05-16T06:57:24.089Z,7.51
2019-05-16T06:59:55.433Z,7.58
2019-05-16T07:02:30.840Z,7.59
2019-05-16T07:05:01.091Z,7.63
2019-05-16T07:07:32.949Z,7.68
2019-05-16T07:10:05.244Z,7.77
2019-05-16T07:12:36.647Z,7.90
2019-05-16T07:15:12.435Z,7.96
2019-05-16T07:17:41.824Z,7.99
2019-05-16T07:20:14.489Z,8.02
2019-05-16T07:22:46.686Z,8.09
2019-05-16T07:25:20.596Z,8.14
2019-05-16T07:27:51.445Z,8.15
2019-05-16T07:30:23.075Z,8.15
2019-05-16T07:32:54.525Z,8.23
2019-05-16T07:35:25.892Z,8.24
2019-05-16T07:37:57.359Z,8.27
2019-05-16T07:40:30.814Z,8.32
2019-05-16T07:43:01.935Z,8.41
2019-05-16T07:45:33.292Z,8.55
2019-05-16T07:48:04.960Z,8.70
2019-05-16T07:50:36.327Z,8.83
2019-05-16T07:53:10.500Z,8.90
2019-05-16T07:55:42.363Z,8.94
2019-05-16T07:58:13.843Z,8.94
2019-05-16T08:00:52.428Z,9.11
2019-05-16T08:03:19.976Z,9.11
2019-05-16T08:05:52.238Z,9.51
2019-05-16T08:08:24.596Z,9.51
2019-05-16T08:10:56.994Z,9.65
2019-05-16T08:13:30.880Z,9.79
2019-05-16T08:16:02.776Z,9.79
2019-05-16T08:18:34.365Z,9.81
2019-05-16T08:21:05.761Z,9.90
2019-05-16T08:23:41.123Z,9.90
2019-05-16T08:26:12.754Z,10.16
2019-05-16T08:28:44.160Z,10.29
2019-05-16T08:31:17.255Z,10.28
2019-05-16T08:36:23.475Z,10.29
2019-05-16T08:38:54.810Z,10.27
2019-05-16T08:41:26.164Z,10.23
2019-05-16T08:44:00.919Z,10.23
2019-05-16T08:46:32.237Z,10.14
2019-05-16T08:49:03.685Z,10.14
2019-05-16T08:51:35.008Z,10.06
2019-05-16T08:54:06.352Z,10.21
2019-05-16T08:56:43.733Z,10.31
2019-05-16T08:59:13.491Z,10.60
2019-05-16T09:04:17.136Z,10.88
2019-05-16T09:06:52.352Z,10.88
2019-05-16T09:09:39.787Z,10.98
2019-05-16T09:10:30.560Z,10.29
2019-05-16T09:10:31.976Z,10.79
2019-05-16T09:11:57.424Z,11.29
2019-05-16T09:14:31.901Z,11.29
2019-05-16T09:17:00.919Z,11.42
2019-05-16T09:19:32.200Z,11.58
2019-05-16T09:22:03.806Z,11.57
2019-05-16T09:24:37.757Z,11.71
2019-05-16T09:27:12.511Z,11.71
2019-05-16T09:29:41.823Z,11.66
2019-05-16T09:32:22.233Z,11.66
2019-05-16T09:34:47.920Z,11.62
2019-05-16T09:37:19.567Z,11.67
2019-05-16T09:39:50.865Z,11.65
2019-05-16T09:42:22.141Z,11.65
2019-05-16T09:44:53.729Z,11.68
2019-05-16T09:47:27.933Z,11.72
2019-05-16T09:49:58.274Z,11.76
2019-05-16T09:52:29.683Z,11.64
2019-05-16T09:55:01.377Z,11.59
2019-05-16T09:57:33.335Z,11.58
2019-05-16T10:00:06.742Z,11.85
2019-05-16T10:02:38.356Z,11.85
2019-05-16T10:05:13.167Z,12.04
2019-05-16T10:07:43.033Z,12.34
2019-05-16T10:10:16.911Z,12.48
2019-05-16T10:12:48.019Z,12.61
2019-05-16T10:15:19.837Z,12.73
2019-05-16T10:17:51.148Z,12.73
2019-05-16T10:20:22.652Z,12.75
2019-05-16T10:22:54.033Z,12.66
2019-05-16T10:25:27.674Z,12.62
2019-05-16T10:27:58.532Z,12.57
2019-05-16T10:30:30.019Z,12.58
2019-05-16T10:33:01.493Z,12.95
2019-05-16T10:35:32.787Z,13.15
2019-05-16T10:38:04.084Z,13.44
2019-05-16T10:40:36.881Z,13.84
2019-05-16T10:43:08.423Z,14.03
2019-05-16T10:45:39.828Z,14.32
2019-05-16T10:48:27.063Z,14.45
2019-05-16T10:51:04.309Z,14.45
2019-05-16T10:54:01.086Z,14.43
2019-05-16T10:56:08.691Z,14.13
2019-05-16T10:58:59.628Z,14.30
2019-05-16T11:01:26.931Z,14.64
2019-05-16T11:03:49.193Z,14.85
2019-05-16T11:06:25.787Z,15.05
2019-05-16T11:08:53.809Z,15.26
2019-05-16T11:11:27.400Z,15.19
2019-05-16T11:13:58.194Z,15.30
2019-05-16T11:16:29.651Z,15.20
2019-05-16T11:19:14.106Z,15.20
2019-05-16T11:21:33.917Z,15.31
2019-05-16T11:24:11.717Z,15.40
2019-05-16T11:26:38.481Z,15.49
2019-05-16T11:29:09.879Z,15.38
2019-05-16T11:31:41.142Z,15.18
2019-05-16T11:34:12.487Z,14.96
2019-05-16T11:36:43.741Z,14.80
2019-05-16T11:39:17.267Z,14.67
2019-05-16T11:41:48.291Z,14.97
2019-05-16T11:44:19.644Z,15.27
2019-05-16T11:46:50.992Z,15.34
2019-05-16T11:49:22.308Z,15.38
2019-05-16T11:51:53.728Z,15.31
2019-05-16T11:54:26.594Z,15.22
2019-05-16T11:56:57.926Z,15.38
2019-05-16T11:59:29.223Z,15.80
2019-05-16T12:02:00.669Z,16.10
2019-05-16T12:04:31.971Z,16.28
2019-05-16T12:07:03.310Z,16.21
2019-05-16T12:09:46.376Z,16.22
2019-05-16T12:12:08.781Z,16.05
2019-05-16T12:14:40.370Z,15.95
2019-05-16T12:17:11.738Z,15.97
2019-05-16T12:19:47.052Z,15.90
2019-05-16T12:22:18.353Z,15.52
2019-05-16T12:24:49.825Z,15.20
2019-05-16T12:27:21.271Z,14.89
2019-05-16T12:29:55.532Z,14.62
2019-05-16T12:32:27.555Z,14.53
2019-05-16T12:34:58.586Z,14.33
2019-05-16T12:37:29.968Z,14.33
2019-05-16T12:40:01.593Z,14.23
2019-05-16T12:42:32.916Z,13.84
2019-05-16T12:45:04.383Z,13.97
2019-05-16T12:47:37.500Z,13.89
2019-05-16T12:50:09.653Z,13.77
2019-05-16T12:52:41.158Z,13.69
2019-05-16T12:55:12.693Z,13.53
2019-05-16T12:57:48.924Z,13.21
2019-05-16T13:00:19.357Z,13.29
2019-05-16T13:02:50.714Z,13.30
2019-05-16T13:05:22.227Z,13.54
2019-05-16T13:07:53.627Z,13.58
2019-05-16T13:10:27.037Z,13.79
2019-05-16T13:12:58.155Z,14.27
2019-05-16T13:15:29.480Z,14.62
2019-05-16T13:18:02.556Z,14.84
2019-05-16T13:20:34.417Z,15.03
2019-05-16T13:23:13.870Z,14.85
2019-05-16T13:25:38.914Z,14.88
2019-05-16T13:28:10.173Z,14.57
2019-05-16T13:30:41.498Z,14.62
2019-05-16T13:33:12.897Z,14.88
2019-05-16T13:35:46.970Z,14.95
2019-05-16T13:38:17.704Z,15.02
2019-05-16T13:40:49.134Z,14.91
2019-05-16T13:43:20.506Z,15.00
2019-05-16T13:45:51.853Z,15.23
2019-05-16T13:48:23.191Z,15.45
2019-05-16T13:51:08.421Z,15.51
2019-05-16T13:53:28.341Z,15.45
2019-05-16T13:55:59.704Z,15.72
2019-05-16T13:58:30.993Z,15.88
2019-05-16T14:01:02.243Z,16.10
2019-05-16T14:03:33.743Z,15.74
2019-05-16T14:06:07.228Z,15.10
2019-05-16T14:08:38.295Z,15.00
2019-05-16T14:11:10.822Z,14.81
2019-05-16T14:13:42.247Z,14.70
2019-05-16T14:16:13.524Z,14.52
2019-05-16T14:18:46.850Z,14.46
2019-05-16T14:21:18.375Z,14.60
2019-05-16T14:23:53.374Z,14.57
2019-05-16T14:26:22.916Z,14.44
2019-05-16T14:28:57.337Z,14.47
2019-05-16T14:31:27.607Z,14.44
2019-05-16T14:33:58.956Z,14.72
2019-05-16T14:36:30.283Z,15.14
2019-05-16T14:39:01.804Z,15.37
2019-05-16T14:41:33.135Z,15.54
2019-05-16T14:44:04.433Z,15.59
2019-05-16T14:46:38.367Z,15.82
2019-05-16T14:49:09.048Z,15.90
2019-05-16T14:51:40.387Z,15.96
2019-05-16T14:54:11.876Z,15.97
2019-05-16T14:56:43.198Z,15.71
2019-05-16T14:59:14.498Z,15.22
2019-05-16T15:01:47.280Z,14.92
2019-05-16T15:04:18.823Z,14.42
2019-05-16T15:06:50.076Z,14.23
2019-05-16T15:09:27.345Z,14.18
2019-05-16T15:11:58.662Z,14.06
2019-05-16T15:14:30.110Z,14.07
2019-05-16T15:17:11.191Z,14.02
2019-05-16T15:19:42.492Z,13.85
2019-05-16T15:22:16.780Z,13.90
2019-05-16T15:24:48.481Z,13.89
2019-05-16T15:27:29.306Z,14.10
2019-05-16T15:30:00.602Z,14.39
2019-05-16T15:32:32.039Z,14.71
2019-05-16T15:35:03.364Z,14.80
2019-05-16T15:37:37.306Z,14.85
2019-05-16T15:40:10.177Z,14.76
2019-05-16T15:42:41.625Z,14.60
2019-05-16T15:45:13.438Z,14.42
2019-05-16T15:47:44.861Z,14.16
2019-05-16T15:50:18.222Z,14.01
2019-05-16T15:52:49.634Z,13.81
2019-05-16T15:55:30.303Z,13.75
2019-05-16T15:58:01.986Z,13.85
2019-05-16T16:00:41.853Z,13.77
2019-05-16T16:03:27.150Z,13.72
2019-05-16T16:05:58.774Z,13.67
2019-05-16T16:08:30.415Z,13.65
2019-05-16T16:11:01.877Z,13.67
2019-05-16T16:13:40.931Z,13.62
2019-05-16T16:16:17.271Z,13.59
2019-05-16T16:18:48.402Z,13.61
2019-05-16T16:21:19.795Z,13.60
2019-05-16T16:23:51.251Z,13.58
2019-05-16T16:26:22.561Z,13.49
2019-05-16T16:28:53.815Z,13.46
2019-05-16T16:31:27.270Z,13.42
2019-05-16T16:33:58.357Z,13.48
2019-05-16T16:36:29.821Z,13.46
2019-05-16T16:39:01.350Z,13.53
2019-05-16T16:41:32.767Z,13.49
2019-05-16T16:44:04.126Z,13.44
2019-05-16T16:46:37.621Z,13.53
2019-05-16T16:49:08.679Z,13.57
2019-05-16T16:51:40.237Z,13.45
2019-05-16T16:54:11.827Z,13.42
2019-05-16T16:56:43.215Z,13.25
2019-05-16T16:59:17.092Z,13.24
2019-05-16T17:01:48.088Z,13.32
2019-05-16T17:04:19.434Z,13.21
2019-05-16T17:06:51.047Z,13.16
2019-05-16T17:09:22.387Z,13.16
2019-05-16T17:11:53.909Z,13.14
2019-05-16T17:14:26.332Z,13.05
2019-05-16T17:16:57.696Z,12.98
2019-05-16T17:19:29.031Z,12.86
2019-05-16T17:22:13.492Z,12.74
2019-05-16T17:24:36.602Z,12.64
2019-05-16T17:27:08.316Z,12.58
2019-05-16T17:29:42.233Z,12.51
2019-05-16T17:32:13.685Z,12.48
2019-05-16T17:34:44.968Z,12.48
2019-05-16T17:37:17.152Z,12.45
2019-05-16T17:39:48.620Z,12.42
2019-05-16T17:42:20.001Z,12.38
2019-05-16T17:44:51.402Z,12.39
2019-05-16T17:47:23.710Z,12.33
2019-05-16T17:49:55.189Z,12.30
2019-05-16T17:52:27.346Z,12.27
2019-05-16T17:54:58.816Z,12.22
2019-05-16T17:57:33.626Z,12.21
2019-05-16T18:00:07.083Z,12.17
2019-05-16T18:02:38.778Z,12.14
2019-05-16T18:05:10.458Z,12.11
2019-05-16T18:07:42.105Z,12.00
2019-05-16T18:10:18.491Z,11.89
2019-05-16T18:12:50.061Z,11.73
2019-05-16T18:15:23.724Z,11.70
2019-05-16T18:17:58.240Z,11.61
2019-05-16T18:20:30.124Z,11.53
2019-05-16T18:23:01.515Z,11.48
2019-05-16T18:25:33.228Z,11.49
2019-05-16T18:28:07.446Z,11.44
2019-05-16T18:30:37.833Z,11.34
2019-05-16T18:33:12.189Z,11.26
2019-05-16T18:35:43.628Z,11.21
2019-05-16T18:38:15.098Z,11.10
2019-05-16T18:40:47.382Z,11.02
2019-05-16T18:43:21.316Z,10.97
2019-05-16T18:45:51.921Z,10.90
2019-05-16T18:48:23.213Z,10.82
2019-05-16T18:50:57.125Z,10.78
2019-05-16T18:53:27.667Z,10.68
2019-05-16T18:55:59.004Z,10.60
2019-05-16T18:58:30.378Z,10.60
2019-05-16T19:01:01.870Z,10.53
2019-05-16T19:03:33.456Z,10.43
2019-05-16T19:06:07.557Z,10.43
2019-05-16T19:08:38.017Z,10.40
2019-05-16T19:11:09.641Z,10.35
2019-05-16T19:13:41.035Z,10.28
2019-05-16T19:16:12.440Z,10.28
2019-05-16T19:18:43.725Z,10.17
2019-05-16T19:21:16.847Z,10.11
2019-05-16T19:23:48.335Z,10.11
2019-05-16T19:26:19.697Z,10.05
2019-05-16T19:28:51.148Z,10.02
2019-05-16T19:31:22.690Z,9.96
2019-05-16T19:33:56.840Z,9.96
2019-05-16T19:36:28.269Z,9.87
2019-05-16T19:38:59.867Z,9.87
2019-05-16T19:41:31.122Z,9.81
2019-05-16T19:44:02.729Z,9.71
2019-05-16T19:46:34.029Z,9.71
2019-05-16T19:49:06.490Z,9.66
2019-05-16T19:51:37.803Z,9.64
2019-05-16T19:54:10.680Z,9.61
2019-05-16T19:56:42.389Z,9.61
2019-05-16T19:59:13.869Z,9.52
2019-05-16T20:01:48.388Z,9.52
2019-05-16T20:04:19.805Z,9.48
2019-05-16T20:06:51.506Z,9.43
2019-05-16T20:09:27.138Z,9.37
2019-05-16T20:11:58.314Z,9.29
2019-05-16T20:14:29.782Z,9.21
2019-05-16T20:17:01.214Z,9.09
2019-05-16T20:19:32.607Z,9.09
2019-05-16T20:22:07.512Z,9.05
2019-05-16T20:24:38.698Z,9.04
2019-05-16T20:27:11.800Z,9.04
2019-05-16T20:29:43.190Z,9.00
2019-05-16T20:32:16.742Z,9.01
2019-05-16T20:34:47.858Z,9.01
2019-05-16T20:37:19.395Z,9.03
2019-05-16T20:39:50.721Z,9.00
2019-05-16T20:42:22.278Z,8.98
2019-05-16T20:44:53.564Z,8.98
2019-05-16T20:47:27.051Z,8.97
2019-05-16T20:49:58.069Z,8.96
2019-05-16T20:52:29.424Z,8.90
2019-05-16T20:55:00.752Z,8.90
2019-05-16T20:57:32.311Z,8.89
2019-05-16T21:00:04.062Z,8.94
2019-05-16T21:02:37.613Z,8.94
2019-05-16T21:05:09.176Z,9.01
2019-05-16T21:07:40.587Z,9.10
2019-05-16T21:10:12.685Z,9.04
2019-05-16T21:12:46.821Z,9.02
2019-05-16T21:15:18.882Z,9.06
2019-05-16T21:17:50.218Z,9.08
2019-05-16T21:20:21.494Z,9.04
2019-05-16T21:22:52.869Z,8.99
2019-05-16T21:25:26.417Z,8.99
2019-05-16T21:27:57.804Z,8.92
2019-05-16T21:30:30.068Z,8.88
2019-05-16T21:33:01.821Z,8.72
2019-05-16T21:35:33.249Z,8.72
2019-05-16T21:38:08.588Z,8.66
2019-05-16T21:40:38.153Z,8.62
2019-05-16T21:43:10.240Z,8.57
2019-05-16T21:45:41.944Z,8.49
2019-05-16T21:48:13.391Z,8.43
2019-05-16T21:50:46.316Z,8.37
2019-05-16T21:53:17.886Z,8.34
2019-05-16T21:55:49.183Z,8.32
2019-05-16T21:58:20.464Z,8.30
2019-05-16T22:00:56.708Z,8.30
2019-05-16T22:03:28.237Z,8.22
2019-05-16T22:05:59.866Z,8.18
2019-05-16T22:08:31.304Z,8.15
2019-05-16T22:11:02.784Z,8.10
2019-05-16T22:13:37.792Z,8.04
2019-05-16T22:16:11.473Z,7.97
2019-05-16T22:18:42.815Z,7.88
2019-05-16T22:21:16.355Z,7.84
2019-05-16T22:23:47.287Z,7.81
2019-05-16T22:26:18.552Z,7.80
2019-05-16T22:28:49.906Z,7.78
2019-05-16T22:31:21.268Z,7.76
2019-05-16T22:33:52.904Z,7.72
2019-05-16T22:36:26.607Z,7.67
2019-05-16T22:38:59.638Z,7.62
2019-05-16T22:41:31.293Z,7.60
2019-05-16T22:44:02.651Z,7.56
2019-05-16T22:46:33.955Z,7.54
2019-05-16T22:49:07.439Z,7.52
2019-05-16T22:51:38.412Z,7.47
2019-05-16T22:54:09.739Z,7.43
2019-05-16T22:56:41.248Z,7.37
2019-05-16T22:59:12.711Z,7.31
2019-05-16T23:01:44.237Z,7.26
2019-05-16T23:04:16.780Z,7.21
2019-05-16T23:06:48.209Z,7.11
2019-05-16T23:09:19.487Z,7.06
2019-05-16T23:11:50.863Z,7.05
2019-05-16T23:14:22.143Z,7.02
2019-05-16T23:16:53.662Z,6.95
2019-05-16T23:19:26.463Z,6.90
2019-05-16T23:21:57.905Z,6.85
2019-05-16T23:24:29.276Z,6.82
2019-05-16T23:27:02.197Z,6.80
2019-05-16T23:29:33.632Z,6.78
2019-05-16T23:32:07.178Z,6.73
2019-05-16T23:34:38.106Z,6.71
2019-05-16T23:37:09.648Z,6.69
2019-05-16T23:39:41.047Z,6.66
2019-05-16T23:42:12.500Z,6.57
2019-05-16T23:44:43.999Z,6.52
2019-05-16T23:47:16.512Z,6.43
2019-05-16T23:49:47.856Z,6.42
2019-05-16T23:52:19.123Z,6.39
2019-05-16T23:54:51.611Z,6.38
2019-05-16T23:57:22.964Z,6.25
2019-05-16T23:59:56.618Z,6.22
